Time;durP1;ratioP1;P1;durP2;ratioP2;P2;SDS_P1;SDS_P2;PMS_P1;PMS_P2;Temp;Humidity;BMP_temperature;BMP_pressure;BME280_temperature;BME280_humidity;BME280_pressure;Samples;Min_cycle;Max_cycle;Signal;HPM_P1;HPM_P2
2022/04/29 00:02:15;;;;;;;22.10;9.90;;;;;;;8.66;65.87;101002.91;4181766;28;20241;-67
2022/04/29 00:04:43;;;;;;;19.90;9.03;;;;;;;8.65;66.24;100992.41;4180055;28;20237;-67
2022/04/29 00:07:11;;;;;;;20.50;10.13;;;;;;;8.73;65.83;101005.06;4173823;28;20588;-68
2022/04/29 00:09:38;;;;;;;17.30;9.03;;;;;;;8.69;65.80;101007.13;4187068;28;20250;-68
2022/04/29 00:12:07;;;;;;;16.73;9.30;;;;;;;8.48;67.26;101003.47;4177673;28;20230;-68
2022/04/29 00:14:34;;;;;;;21.07;10.10;;;;;;;8.44;67.05;101003.69;4165608;28;20308;-66
2022/04/29 00:17:00;;;;;;;23.53;10.10;;;;;;;8.51;66.85;100997.94;4176904;28;22985;-70
2022/04/29 00:19:27;;;;;;;16.80;9.30;;;;;;;8.59;66.27;101000.81;4188209;28;20249;-68
2022/04/29 00:21:53;;;;;;;20.17;9.77;;;;;;;8.52;66.72;101003.13;4180897;28;21867;-66
2022/04/29 00:24:20;;;;;;;18.47;9.63;;;;;;;8.51;66.66;100998.78;4176757;28;21794;-66
2022/04/29 00:26:47;;;;;;;21.73;9.80;;;;;;;8.59;65.92;101000.81;4177138;28;21671;-67
2022/04/29 00:29:14;;;;;;;20.03;9.43;;;;;;;8.66;66.04;100991.44;4178139;28;23088;-68
2022/04/29 00:31:40;;;;;;;20.73;9.57;;;;;;;8.55;66.63;100994.09;4186417;28;21435;-68
2022/04/29 00:34:07;;;;;;;18.07;8.90;;;;;;;8.51;66.67;100992.63;4168323;28;22520;-69
2022/04/29 00:36:34;;;;;;;14.77;8.90;;;;;;;8.53;66.67;100985.41;4171647;28;22736;-69
2022/04/29 00:39:00;;;;;;;19.00;9.27;;;;;;;8.51;66.74;100982.84;4166635;28;20698;-68
2022/04/29 00:41:27;;;;;;;17.90;9.30;;;;;;;8.47;66.52;100985.88;4173127;28;20302;-67
2022/04/29 00:44:03;;;;;;;19.77;9.57;;;;;;;8.38;67.19;100987.38;4170608;28;20249;-67
2022/04/29 00:46:37;;;;;;;18.03;8.87;;;;;;;8.36;68.00;100990.16;4172421;28;20262;-68
2022/04/29 00:49:07;;;;;;;17.80;8.50;;;;;;;8.39;67.41;100991.72;4158996;28;20334;-68
2022/04/29 00:51:34;;;;;;;16.27;8.07;;;;;;;8.49;67.17;100989.25;4177015;28;25567;-69
2022/04/29 00:54:02;;;;;;;22.97;9.30;;;;;;;8.39;67.50;100981.97;4175172;28;20363;-68
2022/04/29 00:56:30;;;;;;;21.13;9.23;;;;;;;8.45;67.64;100972.72;4171160;28;20310;-69
2022/04/29 00:59:15;;;;;;;19.30;9.13;;;;;;;8.48;67.30;100980.44;4178911;28;20400;-68
2022/04/29 01:01:46;;;;;;;23.37;8.67;;;;;;;8.47;67.13;100969.94;4187516;28;20291;-67
2022/04/29 01:04:18;;;;;;;21.33;9.00;;;;;;;8.44;67.54;100969.22;4175295;28;20233;-69
2022/04/29 01:06:44;;;;;;;18.83;8.87;;;;;;;8.42;67.76;100973.78;4190276;28;26475;-68
2022/04/29 01:09:11;;;;;;;14.23;7.90;;;;;;;8.47;67.74;100968.13;4174185;28;21309;-68
2022/04/29 01:11:37;;;;;;;19.07;8.80;;;;;;;8.44;67.51;100963.06;4183914;28;20285;-68
2022/04/29 01:14:04;;;;;;;17.47;7.97;;;;;;;8.38;67.60;100963.50;4170860;28;25859;-67
2022/04/29 01:16:30;;;;;;;19.87;7.80;;;;;;;8.43;67.79;100964.06;4180885;28;20237;-68
2022/04/29 01:18:57;;;;;;;19.67;8.63;;;;;;;8.46;68.03;100958.50;4176303;28;20248;-67
2022/04/29 01:21:25;;;;;;;17.87;8.63;;;;;;;8.38;67.87;100961.72;4177588;28;21089;-69
2022/04/29 01:23:52;;;;;;;19.43;8.00;;;;;;;8.45;67.96;100956.78;4158721;28;20289;-68
2022/04/29 01:26:18;;;;;;;16.23;8.00;;;;;;;8.35;68.01;100953.97;4174497;28;20328;-68
2022/04/29 01:28:45;;;;;;;17.57;8.30;;;;;;;8.32;67.81;100950.75;4174655;28;20264;-67
2022/04/29 01:31:17;;;;;;;16.20;8.70;;;;;;;8.35;68.17;100950.50;4174734;28;22099;-67
2022/04/29 01:33:46;;;;;;;16.43;8.77;;;;;;;8.31;68.73;100955.19;4178508;28;25631;-68
2022/04/29 01:36:12;;;;;;;17.33;7.73;;;;;;;8.20;68.88;100952.53;4174375;28;20242;-68
2022/04/29 01:38:39;;;;;;;16.13;8.33;;;;;;;8.16;69.29;100951.06;4177756;28;20288;-68
2022/04/29 01:41:06;;;;;;;17.80;9.13;;;;;;;8.14;69.80;100952.97;4171528;28;20238;-68
2022/04/29 01:43:33;;;;;;;16.07;7.80;;;;;;;8.20;69.72;100957.81;4166738;28;20248;-69
2022/04/29 01:46:01;;;;;;;15.77;8.17;;;;;;;8.14;70.25;100947.66;4176509;28;20226;-67
2022/04/29 01:48:28;;;;;;;15.27;8.03;;;;;;;8.09;70.03;100955.13;4182951;28;22021;-67
2022/04/29 01:50:56;;;;;;;21.33;8.20;;;;;;;8.08;69.78;100951.66;4172975;28;20244;-68
2022/04/29 01:53:22;;;;;;;19.20;8.97;;;;;;;8.03;69.87;100946.69;4172063;28;20451;-66
2022/04/29 01:55:49;;;;;;;18.03;9.10;;;;;;;8.06;70.67;100947.44;4187223;28;22833;-68
2022/04/29 01:58:15;;;;;;;17.97;8.70;;;;;;;7.99;70.77;100945.22;4176857;28;20622;-68
2022/04/29 02:00:42;;;;;;;19.47;8.30;;;;;;;7.91;70.88;100946.75;4181131;28;20584;-68
2022/04/29 02:03:09;;;;;;;18.23;8.57;;;;;;;7.89;71.66;100936.28;4177763;28;20685;-68
2022/04/29 02:05:36;;;;;;;21.43;8.37;;;;;;;7.92;71.66;100943.16;4180266;28;21306;-67
2022/04/29 02:08:03;;;;;;;19.47;8.97;;;;;;;7.93;71.51;100950.13;4178889;28;20229;-68
2022/04/29 02:10:30;;;;;;;16.73;9.07;;;;;;;7.98;71.60;100943.56;4173690;28;20238;-67
2022/04/29 02:12:56;;;;;;;18.47;8.73;;;;;;;8.08;71.01;100942.81;4183037;28;21702;-68
2022/04/29 02:15:23;;;;;;;15.33;8.47;;;;;;;7.88;71.92;100937.22;4165621;28;20796;-66
2022/04/29 02:17:49;;;;;;;18.70;8.90;;;;;;;7.91;71.99;100942.28;4180879;28;20646;-68
2022/04/29 02:20:16;;;;;;;22.07;9.47;;;;;;;7.87;72.33;100940.03;4171931;28;21231;-68
2022/04/29 02:22:42;;;;;;;25.77;8.90;;;;;;;7.90;72.20;100930.03;4197795;28;20235;-68
2022/04/29 02:25:10;;;;;;;18.50;8.87;;;;;;;7.79;72.88;100936.09;4175354;28;20230;-68
2022/04/29 02:27:38;;;;;;;22.63;8.33;;;;;;;7.89;72.06;100935.41;4183115;28;22821;-67
2022/04/29 02:30:05;;;;;;;15.97;8.53;;;;;;;7.85;72.80;100937.47;4181913;28;20238;-69
2022/04/29 02:32:32;;;;;;;16.80;8.30;;;;;;;7.90;72.07;100935.31;4181771;28;20286;-68
2022/04/29 02:35:00;;;;;;;16.20;7.80;;;;;;;8.00;71.42;100935.47;4178902;28;20234;-67
2022/04/29 02:37:27;;;;;;;18.87;8.13;;;;;;;7.97;71.78;100933.06;4189446;28;20399;-68
2022/04/29 02:39:54;;;;;;;17.77;8.40;;;;;;;7.98;71.50;100932.06;4184158;28;20308;-69
2022/04/29 02:42:21;;;;;;;16.50;7.90;;;;;;;8.03;71.75;100933.44;4163566;28;20230;-67
2022/04/29 02:44:47;;;;;;;21.07;8.77;;;;;;;8.02;71.93;100933.53;4174108;28;20446;-68
2022/04/29 02:47:14;;;;;;;15.57;8.20;;;;;;;8.04;71.85;100926.31;4187307;28;20307;-69
2022/04/29 02:49:42;;;;;;;18.40;7.90;;;;;;;8.15;71.55;100929.00;4166508;28;20269;-68
2022/04/29 02:52:13;;;;;;;19.80;8.07;;;;;;;8.02;72.03;100929.09;4182332;28;20301;-67
2022/04/29 02:54:40;;;;;;;17.97;8.07;;;;;;;8.02;72.32;100918.47;4173869;28;20265;-67
2022/04/29 02:57:07;;;;;;;20.07;8.37;;;;;;;8.08;72.27;100934.88;4176281;28;21227;-67
2022/04/29 02:59:34;;;;;;;22.57;8.87;;;;;;;7.99;72.31;100923.19;4171006;28;20306;-66
2022/04/29 03:02:00;;;;;;;25.57;8.33;;;;;;;7.95;72.85;100927.84;4173773;28;20259;-66
2022/04/29 03:04:27;;;;;;;17.30;8.30;;;;;;;8.08;72.15;100927.78;4164472;28;21795;-67
2022/04/29 03:06:53;;;;;;;17.20;8.43;;;;;;;8.12;72.26;100920.44;4169992;28;20310;-68
2022/04/29 03:09:20;;;;;;;17.83;8.10;;;;;;;8.13;72.92;100922.97;4156329;28;20278;-66
2022/04/29 03:11:48;;;;;;;16.63;8.73;;;;;;;8.19;71.88;100921.66;4169137;28;20237;-66
2022/04/29 03:14:14;;;;;;;15.00;8.13;;;;;;;8.21;71.82;100925.03;4183531;28;20371;-68
2022/04/29 03:16:48;;;;;;;21.17;9.43;;;;;;;8.12;72.72;100934.53;4165453;28;20305;-68
2022/04/29 03:19:14;;;;;;;20.10;8.33;;;;;;;8.17;72.40;100928.88;4164515;28;21724;-66
2022/04/29 03:21:41;;;;;;;16.63;8.37;;;;;;;8.26;71.77;100928.16;4158951;28;21406;-68
2022/04/29 03:24:08;;;;;;;16.83;8.27;;;;;;;8.29;71.26;100929.75;4180579;28;20249;-67
2022/04/29 03:26:35;;;;;;;17.43;8.00;;;;;;;8.32;70.89;100929.53;4179771;28;22997;-67
2022/04/29 03:29:02;;;;;;;19.30;8.57;;;;;;;8.31;70.60;100926.03;4192472;28;22885;-68
2022/04/29 03:31:29;;;;;;;17.57;7.83;;;;;;;8.29;71.73;100925.31;4170952;28;20468;-68
2022/04/29 03:33:56;;;;;;;21.13;8.70;;;;;;;8.21;71.58;100922.38;4181603;28;21705;-67
2022/04/29 03:36:22;;;;;;;18.63;8.17;;;;;;;8.25;71.20;100927.34;4191939;28;20605;-68
2022/04/29 03:38:49;;;;;;;19.57;8.67;;;;;;;8.23;71.64;100921.28;4189419;28;25045;-67
2022/04/29 03:41:15;;;;;;;19.30;8.97;;;;;;;8.19;71.95;100924.31;4209679;28;20548;-67
2022/04/29 03:43:42;;;;;;;19.67;8.67;;;;;;;8.25;71.30;100931.78;4207285;28;20249;-68
2022/04/29 03:46:09;;;;;;;21.53;9.13;;;;;;;8.20;71.91;100926.84;4189922;28;20235;-67
2022/04/29 03:51:21;;;;;;;20.00;9.50;;;;;;;8.26;71.38;100930.81;4188358;28;20237;-68
2022/04/29 03:53:48;;;;;;;25.97;10.40;;;;;;;8.28;71.39;100931.56;4172952;28;20304;-68
2022/04/29 03:56:15;;;;;;;26.03;10.17;;;;;;;8.20;71.15;100937.44;4161578;28;20224;-69
2022/04/29 03:58:42;;;;;;;24.63;10.10;;;;;;;8.18;71.51;100946.50;4166173;28;20632;-66
2022/04/29 04:01:10;;;;;;;21.87;10.47;;;;;;;8.18;71.83;100933.22;4174417;28;20937;-69
2022/04/29 04:03:38;;;;;;;24.40;10.57;;;;;;;8.21;71.42;100935.63;4170931;28;21235;-68
2022/04/29 04:08:50;;;;;;;25.63;11.47;;;;;;;8.33;71.21;100934.69;4221228;28;20219;-67
2022/04/29 04:11:17;;;;;;;24.93;10.77;;;;;;;8.27;71.18;100937.84;4173628;28;20297;-67
2022/04/29 04:13:44;;;;;;;26.73;11.03;;;;;;;8.10;72.16;100932.94;4189571;28;20283;-68
2022/04/29 04:16:12;;;;;;;24.87;10.23;;;;;;;8.20;71.69;100936.63;4189351;28;20648;-69
2022/04/29 04:18:38;;;;;;;20.67;10.40;;;;;;;8.26;71.34;100933.47;4173925;28;20339;-69
2022/04/29 04:21:05;;;;;;;26.43;11.57;;;;;;;8.35;71.18;100940.72;4175686;28;20233;-68
2022/04/29 04:23:31;;;;;;;27.03;11.20;;;;;;;8.30;71.48;100932.28;4164147;28;20238;-67
2022/04/29 04:25:58;;;;;;;17.60;9.70;;;;;;;8.27;71.71;100929.03;4166564;28;20833;-68
2022/04/29 04:28:25;;;;;;;21.10;10.10;;;;;;;8.33;71.53;100934.69;4172064;28;20302;-66
2022/04/29 04:30:51;;;;;;;25.97;10.30;;;;;;;8.39;71.06;100931.56;4172342;28;20240;-68
2022/04/29 04:33:18;;;;;;;22.00;9.53;;;;;;;8.43;71.21;100938.38;4189682;28;22988;-67
2022/04/29 04:35:45;;;;;;;21.60;10.40;;;;;;;8.41;71.00;100937.63;4194437;28;20792;-67
2022/04/29 04:38:13;;;;;;;20.23;9.63;;;;;;;8.43;70.83;100941.03;4164320;28;20741;-69
2022/04/29 04:40:41;;;;;;;23.10;11.67;;;;;;;8.43;70.51;100943.69;4175956;28;20241;-67
2022/04/29 04:43:11;;;;;;;26.70;10.50;;;;;;;8.51;70.97;100943.06;4181357;28;20234;-67
2022/04/29 04:45:38;;;;;;;28.30;10.70;;;;;;;8.57;70.24;100942.59;4167661;28;20467;-67
2022/04/29 04:48:05;;;;;;;23.73;10.30;;;;;;;8.60;70.31;100946.81;4185662;28;20340;-68
2022/04/29 04:50:31;;;;;;;19.97;10.47;;;;;;;8.69;69.95;100946.09;4193567;28;20229;-67
2022/04/29 04:52:58;;;;;;;23.00;9.87;;;;;;;8.60;70.39;100942.34;4192283;28;20234;-69
2022/04/29 04:55:25;;;;;;;23.47;9.50;;;;;;;8.68;69.53;100947.06;4175314;28;20238;-68
2022/04/29 04:57:52;;;;;;;22.07;10.63;;;;;;;8.72;69.67;100948.50;4174424;28;21166;-68
2022/04/29 05:00:19;;;;;;;20.47;10.83;;;;;;;8.77;70.03;100951.66;4175072;28;20675;-68
2022/04/29 05:02:45;;;;;;;29.30;10.17;;;;;;;8.90;68.80;100961.28;4190010;28;20898;-69
2022/04/29 05:05:12;;;;;;;28.23;10.10;;;;;;;9.00;68.79;100962.25;4180076;28;20284;-69
2022/04/29 05:07:38;;;;;;;21.37;10.50;;;;;;;9.08;68.98;100959.81;4184203;28;20249;-70
2022/04/29 05:10:07;;;;;;;18.53;9.50;;;;;;;9.14;68.61;100959.34;4182559;28;21044;-68
2022/04/29 05:12:44;;;;;;;21.87;10.43;;;;;;;9.09;68.21;100953.56;4165155;28;20351;-67
2022/04/29 05:15:12;;;;;;;32.77;10.50;;;;;;;9.24;68.47;100964.75;4196300;28;21655;-68
2022/04/29 05:17:39;;;;;;;28.30;10.57;;;;;;;9.26;68.27;100963.66;4180864;28;20229;-68
2022/04/29 05:20:07;;;;;;;21.83;11.03;;;;;;;9.37;67.97;100967.28;4196530;28;20636;-68
2022/04/29 05:22:33;;;;;;;23.07;10.50;;;;;;;9.57;66.78;100966.50;4173391;28;20291;-67
2022/04/29 05:25:00;;;;;;;25.50;9.97;;;;;;;9.56;66.44;100963.97;4195226;28;22395;-68
2022/04/29 05:27:27;;;;;;;25.30;10.13;;;;;;;9.62;67.08;100964.31;4167060;28;21181;-69
2022/04/29 05:29:53;;;;;;;22.13;10.10;;;;;;;9.73;66.63;100960.75;4170852;28;20333;-68
2022/04/29 05:32:20;;;;;;;22.60;10.43;;;;;;;9.85;65.80;100953.59;4176173;28;22803;-67
2022/04/29 05:34:47;;;;;;;23.77;10.40;;;;;;;9.89;65.44;100966.50;4184950;28;21700;-67
2022/04/29 05:37:14;;;;;;;27.70;10.73;;;;;;;10.13;64.64;100968.06;4174695;28;20321;-67
2022/04/29 05:42:26;;;;;;;23.07;9.87;;;;;;;10.60;63.13;100968.53;4176606;28;20227;-69
2022/04/29 05:44:53;;;;;;;31.17;10.83;;;;;;;10.76;62.73;100970.72;4189735;28;21050;-67
2022/04/29 05:47:19;;;;;;;34.83;10.67;;;;;;;10.75;61.96;100974.38;4173503;28;20245;-67
2022/04/29 05:49:46;;;;;;;22.37;9.90;;;;;;;10.77;62.25;100972.44;4170910;28;23633;-68
2022/04/29 05:52:13;;;;;;;21.97;10.20;;;;;;;11.06;61.72;100971.69;4169451;28;20955;-69
2022/04/29 05:54:39;;;;;;;22.80;9.60;;;;;;;11.24;61.10;100979.88;4174390;28;20242;-70
2022/04/29 05:57:10;;;;;;;30.07;10.30;;;;;;;11.45;59.82;100974.44;4210587;28;22695;-70
2022/04/29 05:59:38;;;;;;;22.27;10.37;;;;;;;11.62;59.75;100973.78;4183419;28;20237;-69
2022/04/29 06:02:05;;;;;;;26.47;10.30;;;;;;;11.91;57.96;100975.66;4202040;28;20321;-70
2022/04/29 06:04:32;;;;;;;29.10;12.23;;;;;;;12.19;57.51;100977.47;4171091;28;21317;-70
2022/04/29 06:06:58;;;;;;;36.63;12.13;;;;;;;12.07;57.62;100983.94;4176088;28;20369;-69
2022/04/29 06:09:25;;;;;;;35.10;11.03;;;;;;;11.48;60.04;100979.53;4189446;28;20309;-70
2022/04/29 06:11:52;;;;;;;34.03;11.53;;;;;;;11.36;60.97;100987.63;4189101;28;20236;-72
2022/04/29 06:14:26;;;;;;;28.07;11.30;;;;;;;11.37;61.21;100985.81;4158384;28;23777;-70
2022/04/29 06:16:52;;;;;;;25.97;11.17;;;;;;;11.59;60.60;100996.25;4178663;28;21207;-71
2022/04/29 06:19:19;;;;;;;23.63;10.60;;;;;;;11.71;60.49;100996.97;4186311;28;20268;-70
2022/04/29 06:21:46;;;;;;;20.07;10.10;;;;;;;11.94;60.81;101002.03;4173589;28;20241;-71
2022/04/29 06:24:13;;;;;;;28.03;12.03;;;;;;;12.12;59.83;101003.03;4190324;28;20238;-71
2022/04/29 06:26:39;;;;;;;26.37;10.60;;;;;;;11.88;59.56;101007.94;4176689;28;20263;-72
2022/04/29 06:29:06;;;;;;;20.63;10.27;;;;;;;11.82;60.92;101006.63;4176938;28;20233;-71
2022/04/29 06:31:33;;;;;;;19.83;10.37;;;;;;;12.05;59.58;101012.56;4175084;28;22253;-71
2022/04/29 06:33:59;;;;;;;15.43;9.67;;;;;;;12.17;59.05;101007.94;4184923;28;21054;-69
2022/04/29 06:36:26;;;;;;;19.37;10.37;;;;;;;12.04;58.30;101002.91;4169803;28;20260;-70
2022/04/29 06:38:53;;;;;;;24.17;10.50;;;;;;;11.96;58.75;101005.41;4174469;28;23957;-68
2022/04/29 06:41:19;;;;;;;20.07;9.97;;;;;;;12.05;58.59;101004.56;4199565;28;20254;-70
2022/04/29 06:43:46;;;;;;;23.77;11.43;;;;;;;12.32;58.32;101008.38;4170933;28;21655;-70
2022/04/29 06:46:13;;;;;;;21.43;9.40;;;;;;;12.46;56.98;101008.75;4187812;28;25937;-70
2022/04/29 06:48:40;;;;;;;18.50;9.70;;;;;;;12.82;55.87;101006.28;4184806;28;20313;-71
2022/04/29 06:51:06;;;;;;;20.47;10.10;;;;;;;13.00;54.90;101017.03;4194955;28;20293;-69
2022/04/29 06:53:41;;;;;;;21.23;10.33;;;;;;;12.43;56.18;101013.53;4175093;28;21206;-69
2022/04/29 06:56:09;;;;;;;17.80;9.70;;;;;;;12.79;56.21;101016.41;4175401;28;20288;-68
2022/04/29 06:58:35;;;;;;;23.27;10.47;;;;;;;12.65;55.63;101021.22;4179887;28;20230;-69
2022/04/29 07:01:02;;;;;;;23.97;10.43;;;;;;;12.21;56.67;101012.84;4183693;28;20418;-67
2022/04/29 07:03:29;;;;;;;26.37;10.50;;;;;;;12.18;58.17;101007.81;4169426;28;20336;-71
2022/04/29 07:06:01;;;;;;;23.70;10.03;;;;;;;12.64;56.46;101016.88;4192391;28;20327;-72
2022/04/29 07:08:28;;;;;;;17.40;10.17;;;;;;;12.78;56.33;101028.06;4249266;28;20226;-70
2022/04/29 07:10:56;;;;;;;24.30;10.53;;;;;;;12.37;56.48;101017.63;4226966;28;20252;-70
2022/04/29 07:13:24;;;;;;;19.97;10.23;;;;;;;12.13;57.75;101011.91;4328204;28;20339;-72
2022/04/29 07:15:50;;;;;;;29.40;10.93;;;;;;;12.23;57.00;101015.38;4218519;28;20833;-69
2022/04/29 07:18:17;;;;;;;24.73;10.70;;;;;;;12.07;57.42;101020.44;4220590;28;20824;-70
2022/04/29 07:20:44;;;;;;;24.07;10.77;;;;;;;11.63;59.51;101012.78;4289746;28;21286;-69
2022/04/29 07:23:10;;;;;;;22.10;10.97;;;;;;;12.03;59.95;101019.88;4242057;28;20240;-72
2022/04/29 07:25:37;;;;;;;19.70;10.83;;;;;;;12.50;59.39;101022.66;4227226;28;20232;-68
2022/04/29 07:28:04;;;;;;;24.80;11.30;;;;;;;12.80;55.69;101018.09;4237730;28;22280;-68
2022/04/29 07:30:31;;;;;;;25.80;10.87;;;;;;;12.95;54.21;101022.00;4359354;28;20287;-69
2022/04/29 07:32:58;;;;;;;23.97;11.37;;;;;;;13.21;53.06;101026.69;4277891;28;20423;-69
2022/04/29 07:43:44;;;;;;;24.57;10.47;;;;;;;13.99;49.78;101023.56;4264794;28;20233;-67
2022/04/29 07:46:13;;;;;;;22.83;10.87;;;;;;;14.63;47.53;101027.78;4255259;28;20238;-68
2022/04/29 07:48:41;;;;;;;20.77;9.03;;;;;;;15.65;44.90;101030.63;4213417;28;20237;-69
2022/04/29 07:51:08;;;;;;;22.97;11.83;;;;;;;16.02;43.48;101032.91;4196537;28;20228;-68
2022/04/29 07:53:35;;;;;;;20.33;9.47;;;;;;;16.36;42.85;101029.22;4262004;28;25926;-68
2022/04/29 07:56:02;;;;;;;24.07;10.30;;;;;;;16.85;40.86;101039.97;4203210;28;21447;-68
2022/04/29 07:58:29;;;;;;;16.13;9.43;;;;;;;17.13;40.99;101032.31;4194467;28;21571;-72
2022/04/29 08:00:58;;;;;;;16.40;9.27;;;;;;;17.09;39.26;101037.22;4211737;28;21295;-69
2022/04/29 08:03:35;;;;;;;17.47;9.63;;;;;;;17.03;39.20;101026.31;4204638;28;20320;-69
2022/04/29 08:06:07;;;;;;;24.13;10.07;;;;;;;17.08;39.98;101030.16;4204743;28;21467;-68
2022/04/29 08:08:34;;;;;;;16.97;10.47;;;;;;;17.41;39.02;101029.19;4195281;28;20231;-69
2022/04/29 08:11:01;;;;;;;20.73;10.13;;;;;;;17.14;38.68;101027.78;4203234;28;20331;-73
2022/04/29 08:13:28;;;;;;;15.33;9.13;;;;;;;17.37;37.68;101035.94;4197129;28;21745;-71
2022/04/29 08:15:59;;;;;;;18.30;8.90;;;;;;;17.35;37.81;101029.88;4182170;28;20268;-70
2022/04/29 08:18:26;;;;;;;20.13;9.77;;;;;;;17.34;37.96;101023.66;4209431;28;20307;-68
2022/04/29 08:20:53;;;;;;;21.83;9.20;;;;;;;17.05;39.47;101022.44;4197221;28;20288;-67
2022/04/29 08:23:19;;;;;;;14.67;9.17;;;;;;;17.50;38.03;101017.38;4184075;28;20280;-66
2022/04/29 08:25:46;;;;;;;21.40;9.50;;;;;;;17.77;37.25;101009.81;4212042;28;20296;-69
2022/04/29 08:28:13;;;;;;;16.50;9.40;;;;;;;17.91;36.47;101017.16;4191562;28;20663;-69
2022/04/29 08:30:40;;;;;;;21.57;9.80;;;;;;;17.50;38.43;101017.38;4215487;28;20225;-70
2022/04/29 08:33:11;;;;;;;19.07;9.50;;;;;;;16.49;39.88;101001.88;4199026;28;21438;-70
2022/04/29 08:35:38;;;;;;;28.17;9.70;;;;;;;15.86;41.94;100998.00;4201499;28;20305;-69
2022/04/29 08:38:08;;;;;;;18.90;9.53;;;;;;;16.51;41.63;101000.69;4210870;28;20857;-70
2022/04/29 08:40:39;;;;;;;17.43;9.97;;;;;;;17.37;39.51;101009.03;4194046;28;20241;-75
2022/04/29 08:43:09;;;;;;;17.40;9.73;;;;;;;17.42;38.63;100998.56;4199339;28;25607;-70
2022/04/29 08:45:36;;;;;;;17.93;10.20;;;;;;;17.29;39.48;100999.97;4200187;28;21933;-69
2022/04/29 08:48:03;;;;;;;21.37;9.77;;;;;;;17.66;38.46;101001.13;4177862;28;20777;-68
2022/04/29 08:50:31;;;;;;;19.30;10.23;;;;;;;18.17;36.72;101007.88;4175835;28;20250;-67
2022/04/29 08:52:58;;;;;;;19.17;10.40;;;;;;;18.37;38.10;100994.75;4185478;28;20296;-68
2022/04/29 09:01:02;;;;;;;25.83;11.13;;;;;;;18.79;35.51;100999.59;4202749;28;22099;-67
2022/04/29 09:03:29;;;;;;;15.77;9.30;;;;;;;19.04;34.88;101002.03;4191822;28;20232;-68
2022/04/29 09:05:59;;;;;;;18.07;9.83;;;;;;;19.39;33.39;101003.94;4212948;28;20722;-69
2022/04/29 09:08:27;;;;;;;18.77;10.33;;;;;;;19.49;33.41;101003.63;4176391;28;21832;-69
2022/04/29 09:10:59;;;;;;;17.67;10.23;;;;;;;18.88;33.83;101000.34;4214221;28;20350;-67
2022/04/29 09:13:30;;;;;;;15.37;9.40;;;;;;;18.12;35.52;100985.03;4198797;28;20237;-68
2022/04/29 09:16:04;;;;;;;22.37;9.93;;;;;;;18.00;35.63;100988.31;4181447;28;20653;-68
2022/04/29 09:18:42;;;;;;;18.57;8.90;;;;;;;17.12;36.12;100984.09;4182466;28;23051;-69
2022/04/29 09:21:11;;;;;;;19.43;10.00;;;;;;;16.73;36.22;100983.00;4174430;28;21597;-69
2022/04/29 09:23:45;;;;;;;13.50;8.97;;;;;;;16.71;36.63;100974.28;4166024;28;20234;-68
2022/04/29 09:26:21;;;;;;;19.60;9.60;;;;;;;16.48;37.92;100978.69;4165707;28;20890;-70
2022/04/29 09:28:49;;;;;;;19.97;10.27;;;;;;;15.89;40.88;100968.97;4180546;28;20234;-71
2022/04/29 09:31:16;;;;;;;16.60;9.43;;;;;;;15.76;40.12;100971.31;4183751;28;20397;-71
2022/04/29 09:33:58;;;;;;;19.50;9.30;;;;;;;15.43;40.29;100968.53;4177186;28;20369;-70
2022/04/29 09:36:26;;;;;;;15.37;6.97;;;;;;;15.32;38.87;100966.16;4170284;28;20235;-72
2022/04/29 09:42:08;;;;;;;14.40;7.53;;;;;;;15.03;40.79;100962.03;4192422;28;20322;-52
2022/04/29 09:44:36;;;;;;;21.93;9.27;;;;;;;14.81;40.46;100959.91;4180194;28;20236;-68
2022/04/29 09:47:11;;;;;;;19.00;8.73;;;;;;;14.45;42.32;100960.84;4176811;28;20268;-69
2022/04/29 09:49:38;;;;;;;17.60;9.50;;;;;;;14.42;42.40;100961.19;4204514;28;20237;-70
2022/04/29 09:52:05;;;;;;;15.33;8.67;;;;;;;14.61;43.35;100961.97;4209390;28;21204;-68
2022/04/29 09:54:37;;;;;;;18.23;7.43;;;;;;;14.65;43.56;100961.50;4191394;28;20662;-67
2022/04/29 09:57:07;;;;;;;17.67;7.60;;;;;;;14.82;43.23;100961.59;4216010;28;20448;-68
2022/04/29 09:59:54;;;;;;;14.50;7.73;;;;;;;14.50;44.17;100952.34;4217320;28;20229;-69
2022/04/29 10:02:23;;;;;;;14.80;7.60;;;;;;;14.97;44.50;100957.31;4189783;28;20237;-69
2022/04/29 10:04:51;;;;;;;15.67;7.37;;;;;;;14.97;43.23;100951.94;4177604;28;20292;-69
2022/04/29 10:07:23;;;;;;;15.17;7.23;;;;;;;15.27;42.24;100955.94;4192978;28;20237;-68
2022/04/29 10:09:55;;;;;;;10.87;7.40;;;;;;;15.35;41.56;100960.47;4207635;28;20253;-68
2022/04/29 10:12:24;;;;;;;13.10;7.93;;;;;;;15.35;42.34;100953.25;4198057;28;20237;-68
2022/04/29 10:14:58;;;;;;;16.20;7.77;;;;;;;15.86;42.09;100958.56;4175687;28;22024;-68
2022/04/29 10:23:12;;;;;;;11.07;7.27;;;;;;;16.98;37.25;100948.84;4187438;28;20256;-70
2022/04/29 10:25:41;;;;;;;12.63;6.43;;;;;;;16.91;36.48;100947.06;4173038;28;20234;-69
2022/04/29 10:28:08;;;;;;;16.37;7.43;;;;;;;16.97;36.65;100947.16;4181231;28;20407;-68
2022/04/29 10:30:37;;;;;;;14.87;7.87;;;;;;;17.20;37.43;100944.53;4211506;28;20324;-70
2022/04/29 10:33:22;;;;;;;13.67;7.00;;;;;;;17.05;37.03;100943.63;4211320;28;20233;-73
2022/04/29 10:35:53;;;;;;;16.03;6.87;;;;;;;17.27;37.29;100948.22;4207013;28;20821;-71
2022/04/29 10:38:26;;;;;;;12.83;6.90;;;;;;;17.63;37.01;100947.69;4253357;28;21696;-73
2022/04/29 10:41:13;;;;;;;15.43;7.33;;;;;;;17.49;34.38;100943.06;4207191;28;20313;-70
2022/04/29 10:43:58;;;;;;;13.10;6.33;;;;;;;17.47;35.60;100937.03;4189673;28;20242;-73
2022/04/29 10:46:36;;;;;;;13.40;6.50;;;;;;;17.52;35.04;100940.84;4198796;28;20312;-73
2022/04/29 10:49:23;;;;;;;14.60;6.60;;;;;;;17.49;34.57;100941.19;4195744;28;20245;-76
2022/04/29 10:51:52;;;;;;;14.03;6.60;;;;;;;17.52;35.77;100942.69;4212307;28;21835;-71
2022/04/29 10:54:33;;;;;;;17.33;6.60;;;;;;;17.38;34.50;100938.91;4186304;28;20262;-72
2022/04/29 10:57:06;;;;;;;10.50;5.83;;;;;;;17.12;34.46;100941.09;4224580;28;20412;-71
2022/04/29 10:59:50;;;;;;;14.87;6.07;;;;;;;16.97;34.33;100940.97;4201207;28;20254;-71
2022/04/29 11:02:24;;;;;;;11.80;5.70;;;;;;;16.91;34.15;100939.81;4200859;28;20355;-73
2022/04/29 11:04:52;;;;;;;14.03;7.73;;;;;;;17.09;33.91;100942.25;4231375;28;21039;-72
2022/04/29 11:07:49;;;;;;;12.60;6.10;;;;;;;16.46;34.78;100931.34;4196355;28;20240;-72
2022/04/29 11:10:18;;;;;;;16.17;6.47;;;;;;;16.37;35.49;100927.00;4191920;28;20864;-70
2022/04/29 11:13:00;;;;;;;15.63;6.40;;;;;;;16.54;35.07;100924.28;4179878;28;20253;-73
2022/04/29 11:15:40;;;;;;;11.23;6.13;;;;;;;15.96;35.06;100927.03;4206382;28;20270;-73
2022/04/29 11:18:15;;;;;;;11.23;5.83;;;;;;;16.48;34.05;100927.66;4180743;28;20697;-73
2022/04/29 11:20:45;;;;;;;11.67;5.63;;;;;;;16.55;34.41;100924.13;4187084;28;26202;-73
2022/04/29 11:25:59;;;;;;;11.10;5.23;;;;;;;17.01;34.68;100912.72;4203867;28;20237;-72
2022/04/29 11:28:32;;;;;;;11.90;5.67;;;;;;;17.27;33.65;100912.41;4196987;28;20382;-71
2022/04/29 11:31:07;;;;;;;9.10;5.50;;;;;;;17.26;31.86;100921.50;4234771;28;21997;-73
2022/04/29 11:33:35;;;;;;;9.73;5.20;;;;;;;16.76;33.49;100917.31;4210773;28;20318;-71
2022/04/29 11:36:04;;;;;;;9.43;5.07;;;;;;;16.84;33.03;100914.66;4199944;28;23606;-74
2022/04/29 11:38:32;;;;;;;18.00;11.07;;;;;;;16.86;32.88;100916.16;4204417;28;20708;-70
2022/04/29 11:41:00;;;;;;;12.33;5.77;;;;;;;17.25;32.01;100917.94;4199542;28;21190;-73
2022/04/29 11:43:27;;;;;;;9.73;5.30;;;;;;;17.40;31.94;100912.66;4199289;28;22233;-70
2022/04/29 11:46:01;;;;;;;9.07;3.60;;;;;;;17.47;30.15;100918.19;4228583;28;20238;-72
2022/04/29 11:48:28;;;;;;;8.50;3.50;;;;;;;17.63;29.02;100917.22;4196999;28;20235;-71
2022/04/29 11:50:57;;;;;;;8.47;3.97;;;;;;;17.83;30.55;100909.53;4169601;28;22236;-69
2022/04/29 11:53:23;;;;;;;10.53;3.63;;;;;;;17.77;28.78;100912.91;4210112;28;20226;-71
2022/04/29 11:55:50;;;;;;;7.17;3.60;;;;;;;17.46;29.32;100911.09;4190797;28;20233;-70
2022/04/29 11:58:17;;;;;;;8.70;3.23;;;;;;;17.42;28.41;100915.16;4196946;28;20673;-74
2022/04/29 12:00:51;;;;;;;6.80;3.37;;;;;;;16.95;29.57;100906.19;4198424;28;20272;-72